Aérodrome :
LOGIN :

S'inscrire | Disclaimer

   EN    FR    IT 

 










Légende :    VFR   VFR Marginal   IFR   IFR Intensif   IFR Très Intensif
Visi : 
Plafond : 
>= 8 km
>= 3000ft
5 à 8 km
1000 à 3000 ft
1500m à 5 km
500 à 1000 ft
800 à 1500m
200 à 500 ft
< 800m
< 200 ft
Symboles :   Orages  Brouillard  Fortes neiges  Fortes précipitations  Vent > 20 kt
SIGMETs :   Divers  Orages  Givrage  Turbulence  Onde Orograph.  Cendres Volcan.






- Altitude de l'aérodrome : 1325 ft
- Code IATA : EBU


LFMH - St-Etienne Boutheon

DERNIER METAR :
  • 032000Z AUTO VRB03KT 9999 3200 +RA FEW032/// SCT056/// BKN076/// ///CB 17/14 Q1004

METARs EXPIRÉS :
  • 031930Z AUTO 24005KT 190V290 9999 SCT033/// BKN040/// OVC058/// ///CB 18/13 Q1004
  • 031900Z AUTO VRB04KT 9999 BKN056/// OVC082/// ///CB 18/12 Q1004
  • 031830Z AUTO 31004KT 250V360 9999 SCT056/// BKN070/// BKN080/// ///CB 18/14 Q1004
  • 031800Z AUTO 18006KT 150V210 9999 ///CB 19/14 Q1004
  • 031730Z AUTO 19009KT 160V220 9999 ///CB 19/13 Q1004

Prévision TAF périmée.
ATIS : +33 4 77 36 17 51



MET'MAP, la Météo Aéronautique d'un coup d'oeil ! - Copyright ORBIFLY Décembre 2007 - Disclaimer

ORBIFLY MET'MAP TEAM :

Programmation & Développement : Alexandra Zaïnal
Sur une idée originale de : Baudouin d'Aumeries
Assistance à la programmation : Marc-Olivier Méhu
Soutien technique & logistique : Manuel Goepfert

Contact : metmap@orbifly.com




SOURCES & CREDITS :

   NOAA